Time,TemperatureF,DewpointF,PressureIn,WindDirection,WindDirectionDegrees,WindSpeedMPH,WindSpeedGustMPH,Humidity,HourlyPrecipIn,Conditions,Clouds,dailyrainin,SolarRadiationWatts/m^2,SoftwareType,DateUTC
2014-12-18 00:00:00,31.6,29.3,30.10,ESE,110,0.0,0.0,91,0.00,OVC,OVC,0.05,0.0,WeatherDisplay:10.37,2014-12-18 06:00:00,
2014-12-18 00:10:00,31.8,29.5,30.10,ESE,108,0.0,2.0,91,0.00,OVC,OVC,0.05,0.0,WeatherDisplay:10.37,2014-12-18 06:10:00,
2014-12-18 00:15:00,31.8,29.5,30.10,ESE,107,1.0,3.0,91,0.00,OVC,OVC,0.05,0.0,WeatherDisplay:10.37,2014-12-18 06:15:00,
2014-12-18 00:20:00,31.8,29.5,30.10,ESE,112,0.0,0.0,91,0.00,OVC,OVC,0.05,0.0,WeatherDisplay:10.37,2014-12-18 06:20:00,
2014-12-18 00:25:00,31.8,29.5,30.10,ESE,119,0.0,0.0,91,0.00,OVC,OVC,0.05,0.0,WeatherDisplay:10.37,2014-12-18 06:25:00,
2014-12-18 00:30:00,32.0,29.7,30.10,SE,126,0.0,0.0,91,0.00,OVC,OVC,0.05,0.0,WeatherDisplay:10.37,2014-12-18 06:30:00,
2014-12-18 00:35:00,32.0,29.9,30.10,ESE,121,0.0,0.0,92,0.00,OVC,OVC,0.05,0.0,WeatherDisplay:10.37,2014-12-18 06:35:00,
2014-12-18 00:40:00,32.0,29.7,30.13,ESE,110,0.0,0.0,91,0.00,OVC,OVC,0.05,0.0,WeatherDisplay:10.37,2014-12-18 06:40:00,
2014-12-18 00:45:00,32.0,29.7,30.13,ESE,117,0.0,0.0,91,0.00,OVC,OVC,0.05,0.0,WeatherDisplay:10.37,2014-12-18 06:45:00,
2014-12-18 00:50:00,32.0,29.7,30.13,ESE,121,0.0,0.0,91,0.00,OVC,OVC,0.05,0.0,WeatherDisplay:10.37,2014-12-18 06:50:00,
2014-12-18 00:55:00,32.0,29.7,30.10,ESE,114,0.0,0.0,91,0.00,OVC,OVC,0.05,0.0,WeatherDisplay:10.37,2014-12-18 06:55:00,
2014-12-18 01:00:00,32.0,29.7,30.10,ESE,110,0.0,0.0,91,0.00,OVC,OVC,0.05,0.0,WeatherDisplay:10.37,2014-12-18 07:00:00,
2014-12-18 01:05:00,32.0,29.7,30.10,ESE,119,0.0,0.0,91,0.00,OVC,OVC,0.05,0.0,WeatherDisplay:10.37,2014-12-18 07:05:00,
2014-12-18 01:10:00,32.0,29.9,30.10,SE,126,0.0,2.0,92,0.00,OVC,OVC,0.05,0.0,WeatherDisplay:10.37,2014-12-18 07:10:00,
2014-12-18 01:15:00,32.0,29.9,30.10,ESE,119,0.0,2.0,92,0.00,OVC,OVC,0.05,0.0,WeatherDisplay:10.37,2014-12-18 07:15:00,
2014-12-18 01:20:00,32.0,29.7,30.10,SE,128,0.0,0.0,91,0.00,OVC,OVC,0.05,0.0,WeatherDisplay:10.37,2014-12-18 07:20:00,
2014-12-18 01:25:00,32.2,29.8,30.10,SSE,147,0.0,0.0,91,0.00,OVC,OVC,0.05,0.0,WeatherDisplay:10.37,2014-12-18 07:25:00,
2014-12-18 01:30:00,32.2,29.8,30.10,SE,133,0.0,0.0,91,0.00,OVC,OVC,0.05,0.0,WeatherDisplay:10.37,2014-12-18 07:30:00,
2014-12-18 01:35:00,32.2,29.8,30.10,ESE,123,0.0,0.0,91,0.00,OVC,OVC,0.05,0.0,WeatherDisplay:10.37,2014-12-18 07:35:00,
2014-12-18 01:40:00,32.2,30.1,30.10,SE,137,0.0,0.0,92,0.00,OVC,OVC,0.05,0.0,WeatherDisplay:10.37,2014-12-18 07:40:00,
2014-12-18 01:45:00,32.2,30.1,30.10,SE,140,0.0,0.0,92,0.00,OVC,OVC,0.05,0.0,WeatherDisplay:10.37,2014-12-18 07:45:00,
2014-12-18 01:50:00,32.2,30.1,30.10,SE,137,0.0,0.0,92,0.00,OVC,OVC,0.05,0.0,WeatherDisplay:10.37,2014-12-18 07:50:00,
2014-12-18 01:55:00,32.2,30.1,30.10,SE,142,0.0,0.0,92,0.00,OVC,OVC,0.05,0.0,WeatherDisplay:10.37,2014-12-18 07:55:00,
2014-12-18 02:00:00,32.2,29.8,30.10,SE,145,0.0,1.0,91,0.00,OVC,OVC,0.05,0.0,WeatherDisplay:10.37,2014-12-18 08:00:00,
2014-12-18 02:10:00,32.4,30.3,30.10,SE,138,0.0,0.0,92,0.00,OVC,OVC,0.05,0.0,WeatherDisplay:10.37,2014-12-18 08:10:00,
2014-12-18 02:15:00,32.4,30.3,30.10,SE,135,0.0,0.0,92,0.00,OVC,OVC,0.05,0.0,WeatherDisplay:10.37,2014-12-18 08:15:00,
2014-12-18 02:20:00,32.5,30.5,30.10,SE,140,0.0,2.0,92,0.00,OVC,OVC,0.05,0.0,WeatherDisplay:10.37,2014-12-18 08:20:00,
2014-12-18 02:35:00,32.7,30.7,30.07,SSE,149,0.0,3.0,92,0.00,OVC,OVC,0.05,0.0,WeatherDisplay:10.37,2014-12-18 08:35:00,
2014-12-18 08:37:00,32.7,32.5,30.07,SSE,158,2.3,0.0,99,0.00,OVC,,0.05,0.0,WeatherDisplay:10.37,2014-12-18 14:37:00,
2014-12-18 08:42:00,32.9,32.7,30.07,SSE,158,2.3,0.0,99,0.00,OVC,,0.05,0.0,WeatherDisplay:10.37,2014-12-18 14:42:00,
2014-12-18 08:47:00,33.1,32.8,30.07,SSE,158,0.0,0.0,99,0.00,OVC,,0.05,0.0,WeatherDisplay:10.37,2014-12-18 14:47:00,
2014-12-18 08:53:00,33.3,33.0,30.07,ESE,112,0.0,0.0,99,0.00,OVC,,0.05,0.0,WeatherDisplay:10.37,2014-12-18 14:53:00,
2014-12-18 08:58:00,33.3,33.0,30.07,SSE,158,0.0,0.0,99,0.00,OVC,,0.05,0.0,WeatherDisplay:10.37,2014-12-18 14:58:00,
2014-12-18 09:03:00,33.4,33.2,30.07,SE,135,4.3,4.3,99,0.00,OVC,,0.05,0.0,WeatherDisplay:10.37,2014-12-18 15:03:00,
2014-12-18 09:08:00,33.4,33.2,30.10,SSE,158,0.0,0.0,99,0.00,OVC,,0.05,0.0,WeatherDisplay:10.37,2014-12-18 15:08:00,